Terminal Aerodrome Forecast
Issued by NWS Blacksburg, VA

Home | Current Version | Previous Version | Text Only | Print | Product List | Glossary On
Versions: 1 2 3 4 5 6 7 8 9 10 11 12 13 14 15
000
FTUS41 KRNK 302322
TAFDAN
TAF
KDAN 302322Z 3100/3124 31006KT P6SM VCTS SCT050CB
     FM310200 00000KT P6SM SCT060 SCT100
     FM311000 24003KT 3SM BR SCT250
     FM311300 24004KT P6SM BKN250
     FM312000 23006KT P6SM VCTS BKN060CB=

USA.gov is the U.S. government's official web portal to all federal, state and local government web resources and services.